createdAt,value
2023-01-07T00:01:57.054Z,149.47
2023-01-07T00:04:27.174Z,153.10
2023-01-07T00:06:57.433Z,156.30
2023-01-07T00:09:27.919Z,155.93
2023-01-07T00:11:58.040Z,154.10
2023-01-07T00:14:28.360Z,148.20
2023-01-07T00:17:00.413Z,150.33
2023-01-07T00:19:30.635Z,150.43
2023-01-07T00:22:00.674Z,151.83
2023-01-07T00:24:30.975Z,153.07
2023-01-07T00:27:01.309Z,148.47
2023-01-07T00:29:31.839Z,146.07
2023-01-07T00:32:03.616Z,140.63
2023-01-07T00:34:34.018Z,128.97
2023-01-07T00:37:17.976Z,135.27
2023-01-07T00:39:48.288Z,130.83
2023-01-07T00:42:35.608Z,125.37
2023-01-07T00:45:06.352Z,130.83
2023-01-07T00:47:38.617Z,127.13
2023-01-07T00:50:09.857Z,114.40
2023-01-07T00:52:40.642Z,122.40
2023-01-07T00:55:12.671Z,123.30
2023-01-07T00:57:43.080Z,112.87
2023-01-07T01:00:17.102Z,117.53
2023-01-07T01:02:49.649Z,115.83
2023-01-07T01:05:20.805Z,112.43
2023-01-07T01:07:51.340Z,109.33
2023-01-07T01:10:22.580Z,106.53
2023-01-07T01:12:53.118Z,102.53
2023-01-07T01:15:25.891Z,99.83
2023-01-07T01:17:58.887Z,88.20
2023-01-07T01:20:29.299Z,84.03
2023-01-07T01:22:59.423Z,77.77
2023-01-07T01:25:29.763Z,74.20
2023-01-07T01:28:00.603Z,76.97
2023-01-07T01:30:31.229Z,73.60
2023-01-07T01:33:04.723Z,73.57
2023-01-07T01:35:35.097Z,67.40
2023-01-07T01:38:05.987Z,70.87
2023-01-07T01:40:36.502Z,72.90
2023-01-07T01:43:23.316Z,72.80
2023-01-07T01:45:53.544Z,65.33
2023-01-07T01:48:25.742Z,62.33
2023-01-07T01:50:57.663Z,63.07
2023-01-07T01:53:31.164Z,65.30
2023-01-07T01:56:05.065Z,64.17
2023-01-07T01:58:39.083Z,63.80
2023-01-07T02:01:10.175Z,61.87
2023-01-07T02:03:42.402Z,63.47
2023-01-07T02:06:25.225Z,61.30
2023-01-07T02:08:56.865Z,61.37
2023-01-07T02:11:42.881Z,59.77
2023-01-07T02:14:26.101Z,60.83
2023-01-07T02:17:02.143Z,59.83
2023-01-07T02:20:16.807Z,59.27
2023-01-07T02:23:37.404Z,62.13
2023-01-07T02:27:04.164Z,56.57
2023-01-07T02:30:18.522Z,55.63
2023-01-07T02:33:20.980Z,58.10
2023-01-07T02:36:14.562Z,57.07
2023-01-07T02:38:58.292Z,57.00
2023-01-07T02:41:36.096Z,55.13
2023-01-07T02:44:11.143Z,56.60
2023-01-07T02:46:46.407Z,56.77
2023-01-07T02:49:20.284Z,59.63
2023-01-07T02:51:53.565Z,55.73
2023-01-07T02:54:25.989Z,54.90
2023-01-07T02:57:37.140Z,52.97
2023-01-07T03:00:28.533Z,52.50
2023-01-07T03:03:16.585Z,54.17
2023-01-07T03:06:01.543Z,54.43
2023-01-07T03:08:47.762Z,55.87
2023-01-07T03:11:21.644Z,57.30
2023-01-07T03:14:02.829Z,54.87
2023-01-07T03:16:37.097Z,54.77
2023-01-07T03:19:12.320Z,57.63
2023-01-07T03:21:43.009Z,55.13
2023-01-07T03:24:15.679Z,55.13
2023-01-07T03:26:48.683Z,54.83
2023-01-07T03:29:21.067Z,56.80
2023-01-07T03:31:58.832Z,55.63
2023-01-07T03:34:31.952Z,54.90
2023-01-07T03:37:05.544Z,52.53
2023-01-07T03:39:40.360Z,55.97
2023-01-07T03:42:30.151Z,53.87
2023-01-07T03:45:02.219Z,55.10
2023-01-07T03:47:36.571Z,55.30
2023-01-07T03:50:08.279Z,53.90
2023-01-07T03:52:41.075Z,52.97
2023-01-07T03:55:13.643Z,57.57
2023-01-07T03:57:44.280Z,54.47
2023-01-07T04:00:17.558Z,54.63
2023-01-07T04:02:55.781Z,55.67
2023-01-07T04:05:31.122Z,57.13
2023-01-07T04:08:02.167Z,52.53
2023-01-07T04:10:38.221Z,53.73
2023-01-07T04:13:08.654Z,55.50
2023-01-07T04:15:39.689Z,52.40
2023-01-07T04:18:10.953Z,53.63
2023-01-07T04:20:41.456Z,52.73
2023-01-07T04:23:11.988Z,54.90
2023-01-07T04:25:44.053Z,55.50
2023-01-07T04:28:15.093Z,56.30
2023-01-07T04:30:45.438Z,58.53
2023-01-07T04:33:15.694Z,50.23
2023-01-07T04:35:48.732Z,54.53
2023-01-07T04:38:23.351Z,52.77
2023-01-07T04:40:55.251Z,51.07
2023-01-07T04:43:26.159Z,52.40
2023-01-07T04:45:57.281Z,48.07
2023-01-07T04:48:27.608Z,51.37
2023-01-07T04:50:57.930Z,52.30
2023-01-07T04:53:34.105Z,51.97
2023-01-07T04:56:08.918Z,52.80
2023-01-07T04:58:40.680Z,53.20
2023-01-07T05:01:11.946Z,53.30
2023-01-07T05:03:42.979Z,53.50
2023-01-07T05:06:13.914Z,55.67
2023-01-07T05:08:44.788Z,50.77
2023-01-07T05:11:22.133Z,52.33
2023-01-07T05:13:55.533Z,55.07
2023-01-07T05:16:28.173Z,54.50
2023-01-07T05:19:02.014Z,55.60
2023-01-07T05:21:34.426Z,56.27
2023-01-07T05:24:04.723Z,59.27
2023-01-07T05:26:36.582Z,60.90
2023-01-07T05:29:07.408Z,58.57
2023-01-07T05:31:37.836Z,58.90
2023-01-07T05:34:08.568Z,61.10
2023-01-07T05:36:39.922Z,59.10
2023-01-07T05:39:10.137Z,55.83
2023-01-07T05:41:42.618Z,58.07
2023-01-07T05:44:12.834Z,61.30
2023-01-07T05:46:43.261Z,58.43
2023-01-07T05:49:13.779Z,60.43
2023-01-07T05:51:43.924Z,61.60
2023-01-07T05:54:14.140Z,60.60
2023-01-07T05:56:46.091Z,56.47
2023-01-07T05:59:16.414Z,56.00
2023-01-07T06:01:46.428Z,57.60
2023-01-07T06:04:16.753Z,57.97
2023-01-07T06:06:46.768Z,60.13
2023-01-07T06:09:16.998Z,58.30
2023-01-07T06:11:49.155Z,58.83
2023-01-07T06:14:19.751Z,60.20
2023-01-07T06:16:51.137Z,60.30
2023-01-07T06:19:23.410Z,56.73
2023-01-07T06:21:53.629Z,57.23
2023-01-07T06:24:23.962Z,57.10
2023-01-07T06:26:55.817Z,55.93
2023-01-07T06:29:26.042Z,56.70
2023-01-07T06:31:56.466Z,54.70
2023-01-07T06:34:26.720Z,52.43
2023-01-07T06:36:57.221Z,54.17
2023-01-07T06:39:27.937Z,52.97
2023-01-07T06:42:00.112Z,52.40
2023-01-07T06:44:30.689Z,49.33
2023-01-07T06:47:00.759Z,49.13
2023-01-07T06:49:31.175Z,48.03
2023-01-07T06:52:01.512Z,53.10
2023-01-07T06:54:31.838Z,49.83
2023-01-07T06:57:03.476Z,47.13
2023-01-07T06:59:33.645Z,47.53
2023-01-07T07:02:04.150Z,48.37
2023-01-07T07:04:34.254Z,47.57
2023-01-07T07:07:04.279Z,45.70
2023-01-07T07:09:34.601Z,45.03
2023-01-07T07:12:07.694Z,46.87
2023-01-07T07:14:38.207Z,45.63
2023-01-07T07:17:08.739Z,43.53
2023-01-07T07:19:39.163Z,45.30
2023-01-07T07:22:09.589Z,41.57
2023-01-07T07:24:40.017Z,41.47
2023-01-07T07:27:14.032Z,40.40
2023-01-07T07:29:44.465Z,41.03
2023-01-07T07:32:14.370Z,38.90
2023-01-07T07:34:44.680Z,43.93
2023-01-07T07:37:14.613Z,43.50
2023-01-07T07:39:44.925Z,45.57
2023-01-07T07:42:16.996Z,45.07
2023-01-07T07:44:48.045Z,46.97
2023-01-07T07:47:18.270Z,39.70
2023-01-07T07:49:48.689Z,34.47
2023-01-07T07:52:19.199Z,32.33
2023-01-07T07:54:49.637Z,34.90
2023-01-07T07:57:27.336Z,30.60
2023-01-07T07:59:58.876Z,33.17
2023-01-07T08:02:29.107Z,32.53
2023-01-07T08:04:59.515Z,29.67
2023-01-07T08:07:32.773Z,32.47
2023-01-07T08:10:06.214Z,31.77
2023-01-07T08:12:39.834Z,34.50
2023-01-07T08:15:12.594Z,30.57
2023-01-07T08:17:43.088Z,32.13
2023-01-07T08:20:14.385Z,32.03
2023-01-07T08:22:44.591Z,32.80
2023-01-07T08:25:14.828Z,28.83
2023-01-07T08:27:58.354Z,30.27
2023-01-07T08:30:29.496Z,29.20
2023-01-07T08:33:00.179Z,30.37
2023-01-07T08:35:30.346Z,30.73
2023-01-07T08:38:05.089Z,29.03
2023-01-07T08:40:35.510Z,29.00
2023-01-07T08:43:08.798Z,28.20
2023-01-07T08:45:41.067Z,29.63
2023-01-07T08:48:11.394Z,29.87
2023-01-07T08:50:42.568Z,28.37
2023-01-07T08:53:14.396Z,30.97
2023-01-07T08:55:45.225Z,27.00
2023-01-07T08:58:17.707Z,27.83
2023-01-07T09:00:48.282Z,31.90
2023-01-07T09:03:18.457Z,26.87
2023-01-07T09:05:49.597Z,26.83
2023-01-07T09:08:19.924Z,29.27
2023-01-07T09:10:50.558Z,30.50
2023-01-07T09:13:22.309Z,29.10
2023-01-07T09:15:53.706Z,29.27
2023-01-07T09:18:24.097Z,29.90
2023-01-07T09:20:54.754Z,29.87
2023-01-07T09:23:24.838Z,27.77
2023-01-07T09:25:54.954Z,29.93
2023-01-07T09:28:29.389Z,31.10
2023-01-07T09:31:00.616Z,29.00
2023-01-07T09:33:31.066Z,26.40
2023-01-07T09:36:02.284Z,28.00
2023-01-07T09:38:33.635Z,27.30
2023-01-07T09:41:04.659Z,27.43
2023-01-07T09:43:59.690Z,26.53
2023-01-07T09:46:33.075Z,25.50
2023-01-07T09:49:05.958Z,23.87
2023-01-07T09:51:41.142Z,25.50
2023-01-07T09:54:22.377Z,25.00
2023-01-07T09:56:53.315Z,27.27
2023-01-07T09:59:24.993Z,25.03
2023-01-07T10:02:00.005Z,23.97
2023-01-07T10:04:39.048Z,28.10
2023-01-07T10:07:18.676Z,24.80
2023-01-07T10:10:04.983Z,26.43
2023-01-07T10:12:43.427Z,26.43
2023-01-07T10:15:40.945Z,25.27
2023-01-07T10:18:40.868Z,26.23
2023-01-07T10:21:18.975Z,27.80
2023-01-07T10:23:51.649Z,29.07
2023-01-07T10:26:32.824Z,31.10
2023-01-07T10:33:25.603Z,31.13
2023-01-07T10:36:03.645Z,32.03
2023-01-07T10:38:39.456Z,28.93
2023-01-07T10:41:15.730Z,28.37
2023-01-07T10:44:02.225Z,29.67
2023-01-07T10:46:45.865Z,27.90
2023-01-07T10:49:35.956Z,29.17
2023-01-07T10:52:27.475Z,28.67
2023-01-07T10:55:14.391Z,31.97
2023-01-07T10:57:44.915Z,29.23
2023-01-07T11:00:17.904Z,27.93
2023-01-07T11:02:53.503Z,29.60
2023-01-07T11:05:27.789Z,28.87
2023-01-07T11:08:02.184Z,33.30
2023-01-07T11:10:35.587Z,29.23
2023-01-07T11:13:11.125Z,27.60
2023-01-07T11:15:47.700Z,30.10
2023-01-07T11:18:23.644Z,31.63
2023-01-07T11:20:56.959Z,35.80
2023-01-07T11:23:38.736Z,32.23
2023-01-07T11:26:22.214Z,33.07
2023-01-07T11:28:56.898Z,28.57
2023-01-07T11:31:47.944Z,31.33
2023-01-07T11:34:22.228Z,31.73
2023-01-07T11:36:54.595Z,32.03
2023-01-07T11:39:26.458Z,29.30
2023-01-07T11:42:00.519Z,32.10
2023-01-07T11:44:30.896Z,32.60
2023-01-07T11:47:01.476Z,36.07
2023-01-07T11:49:33.014Z,32.03
2023-01-07T11:52:05.238Z,28.33
2023-01-07T11:54:35.879Z,28.07
2023-01-07T11:57:21.351Z,30.70
2023-01-07T12:00:07.275Z,32.30
2023-01-07T12:02:37.729Z,29.37
2023-01-07T12:05:24.004Z,28.43
2023-01-07T12:07:58.181Z,32.33
2023-01-07T12:10:35.262Z,31.53
2023-01-07T12:13:08.456Z,32.53
2023-01-07T12:15:50.755Z,32.33
2023-01-07T12:18:43.604Z,31.03
2023-01-07T12:21:32.879Z,30.10
2023-01-07T12:24:20.605Z,32.03
2023-01-07T12:26:57.795Z,29.63
2023-01-07T12:29:42.755Z,32.40
2023-01-07T12:32:24.965Z,28.73
2023-01-07T12:35:14.341Z,30.83
2023-01-07T12:37:57.253Z,30.20
2023-01-07T12:40:35.459Z,29.33
2023-01-07T12:43:23.295Z,28.33
2023-01-07T12:45:57.754Z,29.53
2023-01-07T12:48:38.105Z,30.00
2023-01-07T12:51:16.487Z,30.13
2023-01-07T12:53:52.648Z,31.37
2023-01-07T12:56:29.534Z,30.90
2023-01-07T12:59:05.177Z,27.40
2023-01-07T13:01:39.242Z,30.57
2023-01-07T13:04:18.789Z,31.67
2023-01-07T13:06:55.312Z,27.93
2023-01-07T13:09:32.065Z,32.37
2023-01-07T13:12:40.601Z,30.43
2023-01-07T13:15:21.565Z,28.43
2023-01-07T13:17:55.167Z,30.07
2023-01-07T13:20:43.311Z,29.67
2023-01-07T13:23:23.050Z,28.27
2023-01-07T13:26:06.597Z,28.40
2023-01-07T13:29:04.983Z,31.37
2023-01-07T13:32:01.189Z,28.80
2023-01-07T13:34:42.378Z,29.53
2023-01-07T13:37:28.115Z,32.57
2023-01-07T13:40:20.809Z,28.43
2023-01-07T13:42:57.068Z,31.23
2023-01-07T13:45:31.285Z,29.47
2023-01-07T13:48:05.461Z,28.73
2023-01-07T13:50:39.526Z,31.57
2023-01-07T13:53:31.546Z,31.30
2023-01-07T13:56:33.718Z,30.07
2023-01-07T13:59:04.240Z,33.43
2023-01-07T14:01:58.400Z,32.57
2023-01-07T14:04:49.535Z,30.87
2023-01-07T14:07:20.990Z,32.63
2023-01-07T14:09:51.615Z,30.57
2023-01-07T14:12:53.988Z,33.33
2023-01-07T14:15:45.458Z,29.23
2023-01-07T14:18:59.556Z,33.97
2023-01-07T14:21:48.115Z,34.90
2023-01-07T14:24:39.120Z,35.00
2023-01-07T14:27:31.763Z,35.03
2023-01-07T14:30:21.140Z,34.37
2023-01-07T14:33:00.893Z,36.40
2023-01-07T14:35:40.823Z,35.60
2023-01-07T14:38:53.874Z,36.97
2023-01-07T14:41:24.588Z,38.80
2023-01-07T14:44:28.943Z,36.93
2023-01-07T14:47:00.586Z,36.47
2023-01-07T14:49:57.411Z,38.10
2023-01-07T14:53:10.748Z,38.17
2023-01-07T14:56:02.675Z,40.23
2023-01-07T14:58:46.317Z,45.47
2023-01-07T15:01:43.858Z,48.00
2023-01-07T15:04:44.986Z,45.43
2023-01-07T15:07:23.762Z,47.03
2023-01-07T15:10:17.629Z,51.57
2023-01-07T15:13:19.280Z,54.50
2023-01-07T15:16:06.947Z,55.80
2023-01-07T15:18:49.364Z,56.53
2023-01-07T15:21:32.735Z,55.37
2023-01-07T15:24:11.467Z,56.70
2023-01-07T15:26:52.234Z,59.77
2023-01-07T15:29:35.979Z,52.30
2023-01-07T15:32:18.810Z,52.67
2023-01-07T15:34:50.028Z,47.20
2023-01-07T15:37:21.789Z,48.23
2023-01-07T15:39:58.357Z,44.60
2023-01-07T15:42:35.649Z,42.60
2023-01-07T15:45:18.259Z,48.03
2023-01-07T15:47:50.327Z,47.87
2023-01-07T15:50:32.431Z,43.67
2023-01-07T15:53:06.039Z,42.77
2023-01-07T15:55:41.567Z,41.20
2023-01-07T15:58:20.805Z,41.13
2023-01-07T16:01:06.180Z,43.57
2023-01-07T16:03:42.341Z,42.00
2023-01-07T16:06:34.474Z,41.97
2023-01-07T16:09:18.475Z,43.23
2023-01-07T16:11:51.197Z,44.73
2023-01-07T16:14:25.115Z,49.63
2023-01-07T16:17:20.612Z,46.50
2023-01-07T16:19:52.638Z,49.40
2023-01-07T16:22:25.360Z,50.53
2023-01-07T16:24:56.805Z,45.47
2023-01-07T16:27:31.121Z,48.93
2023-01-07T16:30:03.822Z,50.13
2023-01-07T16:32:35.472Z,51.40
2023-01-07T16:35:09.717Z,53.83
2023-01-07T16:37:42.779Z,54.73
2023-01-07T16:40:26.093Z,56.13
2023-01-07T16:42:56.622Z,60.47
2023-01-07T16:45:34.423Z,62.33
2023-01-07T16:48:20.033Z,70.40
2023-01-07T16:50:53.711Z,64.67
2023-01-07T16:53:30.596Z,133.20
2023-01-07T16:56:20.877Z,105.63
2023-01-07T16:58:54.268Z,82.87
2023-01-07T17:01:35.742Z,70.27
2023-01-07T17:04:11.922Z,72.53
2023-01-07T17:06:44.802Z,72.03
2023-01-07T17:09:28.535Z,66.00
2023-01-07T17:11:59.701Z,64.67
2023-01-07T17:14:52.229Z,64.37
2023-01-07T17:17:32.086Z,59.27
2023-01-07T17:20:16.016Z,53.70
2023-01-07T17:22:48.298Z,64.33
2023-01-07T17:25:23.832Z,69.70
2023-01-07T17:28:00.616Z,61.03
2023-01-07T17:30:37.991Z,57.33
2023-01-07T17:33:25.636Z,61.97
2023-01-07T17:35:58.117Z,59.00
2023-01-07T17:38:28.858Z,57.70
2023-01-07T17:40:59.835Z,55.53
2023-01-07T17:43:35.356Z,58.53
2023-01-07T17:46:08.092Z,56.17
2023-01-07T17:48:47.475Z,61.73
2023-01-07T17:51:18.175Z,56.93
2023-01-07T17:53:50.954Z,59.27
2023-01-07T17:56:22.598Z,55.20
2023-01-07T17:58:55.830Z,59.40
2023-01-07T18:01:28.407Z,62.50
2023-01-07T18:04:10.211Z,71.90
2023-01-07T18:06:42.250Z,57.63
2023-01-07T18:09:14.409Z,60.03
2023-01-07T18:12:04.918Z,62.50
2023-01-07T18:14:35.425Z,61.70
2023-01-07T18:17:07.198Z,70.67
2023-01-07T18:19:39.461Z,71.67
2023-01-07T18:22:10.319Z,78.57
2023-01-07T18:24:40.726Z,72.70
2023-01-07T18:27:12.305Z,74.03
2023-01-07T18:29:42.787Z,89.70
2023-01-07T18:32:13.950Z,83.13
2023-01-07T18:34:50.425Z,78.83
2023-01-07T18:37:21.245Z,82.47
2023-01-07T18:39:51.828Z,90.80
2023-01-07T18:42:22.290Z,85.33
2023-01-07T18:44:52.614Z,82.57
2023-01-07T18:47:22.946Z,86.13
2023-01-07T18:50:01.267Z,81.80
2023-01-07T18:52:35.068Z,86.63
2023-01-07T18:55:05.786Z,88.50
2023-01-07T18:57:36.321Z,84.57
2023-01-07T19:00:09.885Z,83.40
2023-01-07T19:02:40.340Z,78.47
2023-01-07T19:05:13.132Z,84.50
2023-01-07T19:07:43.962Z,87.13
2023-01-07T19:10:16.176Z,91.00
2023-01-07T19:12:46.758Z,98.67
2023-01-07T19:15:17.090Z,101.57
2023-01-07T19:17:47.197Z,102.93
2023-01-07T19:20:20.302Z,105.00
2023-01-07T19:22:50.819Z,97.70
2023-01-07T19:25:21.052Z,110.87
2023-01-07T19:27:51.261Z,111.13
2023-01-07T19:30:40.023Z,104.93
2023-01-07T19:33:10.445Z,87.77
2023-01-07T19:35:42.314Z,89.50
2023-01-07T19:38:13.449Z,103.83
2023-01-07T19:40:45.933Z,91.40
2023-01-07T19:43:16.765Z,89.70
2023-01-07T19:45:57.727Z,91.97
2023-01-07T19:48:28.892Z,81.73
2023-01-07T19:51:03.088Z,88.30
2023-01-07T19:53:34.845Z,90.10
2023-01-07T19:56:07.142Z,93.23
2023-01-07T19:58:38.258Z,96.63
2023-01-07T20:01:10.206Z,93.03
2023-01-07T20:03:41.159Z,95.17
2023-01-07T20:06:15.900Z,85.90
2023-01-07T20:08:47.131Z,112.90
2023-01-07T20:11:18.582Z,111.30
2023-01-07T20:13:50.242Z,92.00
2023-01-07T20:16:23.915Z,93.47
2023-01-07T20:18:57.040Z,90.70
2023-01-07T20:21:29.823Z,84.53
2023-01-07T20:24:00.881Z,103.97
2023-01-07T20:26:33.940Z,87.87
2023-01-07T20:29:04.571Z,99.83
2023-01-07T20:31:35.279Z,96.63
2023-01-07T20:34:05.752Z,87.70
2023-01-07T20:36:37.927Z,81.07
2023-01-07T20:39:08.124Z,76.23
2023-01-07T20:41:39.223Z,82.00
2023-01-07T20:44:11.229Z,94.37
2023-01-07T20:46:42.179Z,100.30
2023-01-07T20:49:13.038Z,93.30
2023-01-07T20:51:45.172Z,82.20
2023-01-07T20:54:15.487Z,76.77
2023-01-07T20:56:46.181Z,75.17
2023-01-07T20:59:16.581Z,77.50
2023-01-07T21:01:49.412Z,79.03
2023-01-07T21:04:19.854Z,77.47
2023-01-07T21:06:51.920Z,77.30
2023-01-07T21:09:22.357Z,77.07
2023-01-07T21:11:52.683Z,88.63
2023-01-07T21:14:23.608Z,191.10
2023-01-07T21:16:54.179Z,150.60
2023-01-07T21:19:24.878Z,122.30
2023-01-07T21:21:56.631Z,91.20
2023-01-07T21:24:27.254Z,92.80
2023-01-07T21:26:57.690Z,89.93
2023-01-07T21:29:28.004Z,93.23
2023-01-07T21:31:58.434Z,92.60
2023-01-07T21:34:28.958Z,90.67
2023-01-07T21:37:01.076Z,87.33
2023-01-07T21:39:31.249Z,85.23
2023-01-07T21:42:01.101Z,92.07
2023-01-07T21:44:32.110Z,97.93
2023-01-07T21:47:02.431Z,99.77
2023-01-07T21:49:33.552Z,100.20
2023-01-07T21:52:05.747Z,100.13
2023-01-07T21:54:36.379Z,97.70
2023-01-07T21:57:06.796Z,90.67
2023-01-07T21:59:37.229Z,87.23
2023-01-07T22:02:07.768Z,78.13
2023-01-07T22:04:41.153Z,78.00
2023-01-07T22:07:15.768Z,71.37
2023-01-07T22:09:47.234Z,70.40
2023-01-07T22:12:18.263Z,67.47
2023-01-07T22:14:48.559Z,66.53
2023-01-07T22:17:19.216Z,64.90
2023-01-07T22:19:49.535Z,64.90
2023-01-07T22:22:21.499Z,59.83
2023-01-07T22:24:51.727Z,61.13
2023-01-07T22:27:21.949Z,62.87
2023-01-07T22:29:52.792Z,60.13
2023-01-07T22:32:22.900Z,60.30
2023-01-07T22:34:53.121Z,57.47
2023-01-07T22:37:27.340Z,57.07
2023-01-07T22:40:00.536Z,59.23
2023-01-07T22:42:36.784Z,56.20
2023-01-07T22:45:13.833Z,58.17
2023-01-07T22:47:47.483Z,54.47
2023-01-07T22:50:18.408Z,61.83
2023-01-07T22:52:50.383Z,58.57
2023-01-07T22:55:20.809Z,55.47
2023-01-07T22:57:51.529Z,55.67
2023-01-07T23:00:43.060Z,58.33
2023-01-07T23:03:14.049Z,69.43
2023-01-07T23:05:44.415Z,61.70
2023-01-07T23:08:16.889Z,63.67
2023-01-07T23:10:47.322Z,64.97
2023-01-07T23:13:18.470Z,62.53
2023-01-07T23:15:48.682Z,62.50
2023-01-07T23:18:18.911Z,66.63
2023-01-07T23:20:49.032Z,65.93
2023-01-07T23:23:24.685Z,66.10
2023-01-07T23:25:55.103Z,73.60
2023-01-07T23:28:25.321Z,76.17
2023-01-07T23:30:55.561Z,74.13
2023-01-07T23:33:25.667Z,79.53
2023-01-07T23:36:03.051Z,83.30
2023-01-07T23:38:35.007Z,81.80
2023-01-07T23:41:06.779Z,88.13
2023-01-07T23:43:37.605Z,97.40
2023-01-07T23:46:10.355Z,99.17
2023-01-07T23:48:41.320Z,91.10
2023-01-07T23:51:13.491Z,90.20
2023-01-07T23:53:45.979Z,91.93
2023-01-07T23:56:19.171Z,92.27
2023-01-07T23:58:50.154Z,82.60
